Time;durP1;ratioP1;P1;durP2;ratioP2;P2;SDS_P1;SDS_P2;PMS_P1;PMS_P2;Temp;Humidity;BMP_temperature;BMP_pressure;BME280_temperature;BME280_humidity;BME280_pressure;Samples;Min_cycle;Max_cycle;Signal;HPM_P1;HPM_P2
2022/07/25 00:00:29;;;;;;;;;;;;;;;15.50;100.00;100475.38;3058404;19;1039;-48
2022/07/25 00:01:34;;;;;;;;;;;;;;;15.51;100.00;100476.22;3057463;19;1852;-49
2022/07/25 00:02:39;;;;;;;;;;;;;;;15.50;100.00;100472.69;3058598;19;1037;-48
2022/07/25 00:03:41;;;;;;;;;;;;;;;15.50;100.00;100469.13;3058402;19;1328;-48
2022/07/25 00:04:46;;;;;;;;;;;;;;;15.48;100.00;100471.09;3058409;19;971;-48
2022/07/25 00:05:48;;;;;;;;;;;;;;;15.50;100.00;100469.13;3058446;19;845;-49
2022/07/25 00:06:52;;;;;;;;;;;;;;;15.47;100.00;100464.84;3058532;19;1082;-48
2022/07/25 00:07:54;;;;;;;;;;;;;;;15.47;100.00;100464.84;3058529;19;873;-49
2022/07/25 00:08:59;;;;;;;;;;;;;;;15.47;100.00;100470.25;3058650;19;947;-48
2022/07/25 00:10:00;;;;;;;;;;;;;;;15.48;100.00;100463.03;3058338;19;1031;-47
2022/07/25 00:11:05;;;;;;;;;;;;;;;15.46;100.00;100463.16;3058341;19;896;-48
2022/07/25 00:12:07;;;;;;;;;;;;;;;15.46;100.00;100457.78;3058247;19;965;-49
2022/07/25 00:13:14;;;;;;;;;;;;;;;15.45;100.00;100456.09;3058510;19;924;-48
2022/07/25 00:14:18;;;;;;;;;;;;;;;15.45;100.00;100463.31;3060070;19;1267;-49
2022/07/25 00:15:20;;;;;;;;;;;;;;;15.42;100.00;100453.66;3058683;19;893;-49
2022/07/25 00:16:25;;;;;;;;;;;;;;;15.41;100.00;100449.25;3058275;19;888;-48
2022/07/25 00:17:27;;;;;;;;;;;;;;;15.40;100.00;100452.91;3058484;19;825;-48
2022/07/25 00:18:31;;;;;;;;;;;;;;;15.37;100.00;100446.91;3058314;19;944;-48
2022/07/25 00:19:33;;;;;;;;;;;;;;;15.34;100.00;100452.53;3058462;19;882;-48
2022/07/25 00:20:37;;;;;;;;;;;;;;;15.34;100.00;100448.03;3058326;19;1067;-48
2022/07/25 00:21:39;;;;;;;;;;;;;;;15.34;100.00;100439.09;3057965;19;1896;-48
2022/07/25 00:22:43;;;;;;;;;;;;;;;15.32;100.00;100435.69;3058322;19;935;-48
2022/07/25 00:23:45;;;;;;;;;;;;;;;15.33;100.00;100440.97;3058352;19;925;-48
2022/07/25 00:24:50;;;;;;;;;;;;;;;15.31;100.00;100432.16;3057740;19;965;-48
2022/07/25 00:25:52;;;;;;;;;;;;;;;15.30;100.00;100434.97;3058557;19;1312;-48
2022/07/25 00:26:56;;;;;;;;;;;;;;;15.27;100.00;100433.38;3058055;19;956;-48
2022/07/25 00:27:58;;;;;;;;;;;;;;;15.26;100.00;100423.59;3057333;19;870;-48
2022/07/25 00:29:02;;;;;;;;;;;;;;;15.25;100.00;100421.03;3057145;19;968;-48
2022/07/25 00:30:04;;;;;;;;;;;;;;;15.22;100.00;100427.50;3058372;19;861;-48
2022/07/25 00:31:09;;;;;;;;;;;;;;;15.20;100.00;100416.06;3058042;19;1040;-47
2022/07/25 00:32:11;;;;;;;;;;;;;;;15.19;100.00;100411.66;3058494;19;959;-48
2022/07/25 00:33:15;;;;;;;;;;;;;;;15.18;100.00;100404.56;3058182;19;1006;-48
2022/07/25 00:34:17;;;;;;;;;;;;;;;15.17;100.00;100402.84;3058299;19;960;-48
2022/07/25 00:35:22;;;;;;;;;;;;;;;15.10;100.00;100407.88;3057779;19;1031;-48
2022/07/25 00:36:24;;;;;;;;;;;;;;;15.07;100.00;100402.75;3058179;19;972;-49
2022/07/25 00:37:28;;;;;;;;;;;;;;;15.04;100.00;100403.00;3057952;19;924;-49
2022/07/25 00:38:30;;;;;;;;;;;;;;;15.03;100.00;100403.13;3058247;19;872;-48
2022/07/25 00:39:34;;;;;;;;;;;;;;;15.03;100.00;100405.81;3057520;19;959;-48
2022/07/25 00:40:37;;;;;;;;;;;;;;;15.01;100.00;100405.94;3057902;19;1063;-48
2022/07/25 00:41:43;;;;;;;;;;;;;;;14.99;100.00;100405.19;3056793;19;1838;-48
2022/07/25 00:42:45;;;;;;;;;;;;;;;14.99;100.00;100409.72;3057399;19;957;-48
2022/07/25 00:43:49;;;;;;;;;;;;;;;14.98;100.00;100410.69;3058037;19;984;-49
2022/07/25 00:44:51;;;;;;;;;;;;;;;14.97;100.00;100407.16;3058167;19;935;-48
2022/07/25 00:45:57;;;;;;;;;;;;;;;14.94;100.00;100407.44;3056932;19;1024;-48
2022/07/25 00:47:00;;;;;;;;;;;;;;;14.94;100.00;100410.13;3057148;19;1077;-48
2022/07/25 00:48:04;;;;;;;;;;;;;;;14.92;100.00;100397.78;3058008;19;872;-49
2022/07/25 00:49:06;;;;;;;;;;;;;;;14.92;100.00;100405.84;3057943;19;823;-49
2022/07/25 00:50:11;;;;;;;;;;;;;;;14.91;100.00;100402.28;3057036;19;992;-48
2022/07/25 00:51:12;;;;;;;;;;;;;;;14.90;100.00;100405.09;3057077;19;874;-48
2022/07/25 00:52:17;;;;;;;;;;;;;;;14.88;100.00;100399.00;3056825;19;1194;-48
2022/07/25 00:53:19;;;;;;;;;;;;;;;14.89;100.00;100409.63;3057095;19;1020;-49
2022/07/25 00:54:24;;;;;;;;;;;;;;;14.87;100.00;100405.34;3056339;19;956;-51
2022/07/25 00:55:26;;;;;;;;;;;;;;;14.86;100.00;100404.47;3058045;19;897;-48
2022/07/25 00:56:30;;;;;;;;;;;;;;;14.85;100.00;100401.94;3057818;19;1007;-48
2022/07/25 00:57:32;;;;;;;;;;;;;;;14.85;100.00;100407.31;3057113;19;1828;-48
2022/07/25 00:58:36;;;;;;;;;;;;;;;14.83;100.00;100403.91;3056718;19;1893;-47
2022/07/25 00:59:38;;;;;;;;;;;;;;;14.82;100.00;100404.88;3058323;19;1060;-49
2022/07/25 01:00:43;;;;;;;;;;;;;;;14.78;100.00;100410.50;3057721;19;924;-49
2022/07/25 01:01:46;;;;;;;;;;;;;;;14.77;100.00;100411.47;3057515;19;1868;-49
2022/07/25 01:02:51;;;;;;;;;;;;;;;14.74;100.00;100409.00;3057617;19;947;-49
2022/07/25 01:03:53;;;;;;;;;;;;;;;14.73;100.00;100409.16;3056846;19;1046;-48
2022/07/25 01:04:58;;;;;;;;;;;;;;;14.73;100.00;100415.34;3056873;19;1115;-48
2022/07/25 01:06:00;;;;;;;;;;;;;;;14.71;100.00;100405.75;3057988;19;760;-49
2022/07/25 01:07:04;;;;;;;;;;;;;;;14.68;100.00;100412.19;3057899;19;955;-49
2022/07/25 01:08:07;;;;;;;;;;;;;;;14.66;100.00;100403.41;3057930;19;848;-49
2022/07/25 01:09:11;;;;;;;;;;;;;;;14.64;100.00;100405.34;3057476;19;942;-49
2022/07/25 01:10:13;;;;;;;;;;;;;;;14.63;100.00;100409.00;3057604;19;1212;-49
2022/07/25 01:11:17;;;;;;;;;;;;;;;14.61;100.00;100408.28;3057723;19;869;-49
2022/07/25 01:12:19;;;;;;;;;;;;;;;14.58;100.00;100410.38;3056658;19;1231;-48
2022/07/25 01:13:24;;;;;;;;;;;;;;;14.56;100.00;100410.50;3057035;19;936;-49
2022/07/25 01:14:26;;;;;;;;;;;;;;;14.54;100.00;100414.28;3057178;19;1815;-48
2022/07/25 01:15:30;;;;;;;;;;;;;;;14.52;100.00;100417.06;3058190;19;734;-48
2022/07/25 01:16:32;;;;;;;;;;;;;;;14.50;100.00;100413.66;3057641;19;908;-49
2022/07/25 01:17:37;;;;;;;;;;;;;;;14.47;100.00;100403.19;3057777;19;972;-49
2022/07/25 01:18:38;;;;;;;;;;;;;;;14.47;100.00;100405.84;3057326;19;952;-49
2022/07/25 01:19:45;;;;;;;;;;;;;;;14.46;100.00;100401.47;3057648;19;1694;-49
2022/07/25 01:20:47;;;;;;;;;;;;;;;14.46;100.00;100406.84;3057520;19;1668;-49
2022/07/25 01:21:51;;;;;;;;;;;;;;;14.44;100.00;100408.78;3057682;19;877;-48
2022/07/25 01:22:53;;;;;;;;;;;;;;;14.43;100.00;100404.38;3057457;19;1870;-48
2022/07/25 01:23:57;;;;;;;;;;;;;;;14.43;100.00;100399.00;3057542;19;873;-49
2022/07/25 01:25:00;;;;;;;;;;;;;;;14.41;100.00;100398.28;3057617;19;908;-47
2022/07/25 01:26:04;;;;;;;;;;;;;;;14.40;100.00;100396.56;3057792;19;861;-49
2022/07/25 01:27:06;;;;;;;;;;;;;;;14.41;100.00;100404.50;3057926;19;933;-51
2022/07/25 01:28:20;;;;;;;;;;;;;;;14.40;100.00;100396.56;3057465;19;1313;-48
2022/07/25 01:29:22;;;;;;;;;;;;;;;14.37;100.00;100397.63;3057272;19;971;-49
2022/07/25 01:30:26;;;;;;;;;;;;;;;14.37;100.00;100400.31;3057258;19;1051;-48
2022/07/25 01:31:28;;;;;;;;;;;;;;;14.36;100.00;100395.09;3057323;19;1010;-48
2022/07/25 01:32:33;;;;;;;;;;;;;;;14.35;100.00;100398.75;3057351;19;1027;-48
2022/07/25 01:33:34;;;;;;;;;;;;;;;14.33;100.00;100384.56;3057286;19;1112;-49
2022/07/25 01:34:39;;;;;;;;;;;;;;;14.33;100.00;100387.25;3057819;19;775;-51
2022/07/25 01:35:41;;;;;;;;;;;;;;;14.31;100.00;100387.38;3057585;19;997;-49
2022/07/25 01:36:46;;;;;;;;;;;;;;;14.30;100.00;100385.66;3057612;19;1041;-49
2022/07/25 01:37:48;;;;;;;;;;;;;;;14.30;100.00;100387.50;3057268;19;935;-49
2022/07/25 01:38:53;;;;;;;;;;;;;;;14.31;100.00;100389.22;3057572;19;908;-49
2022/07/25 01:39:55;;;;;;;;;;;;;;;14.29;100.00;100393.84;3057183;19;940;-47
2022/07/25 01:40:59;;;;;;;;;;;;;;;14.28;100.00;100392.13;3057292;19;1207;-48
2022/07/25 01:42:02;;;;;;;;;;;;;;;14.27;100.00;100393.09;3057172;19;908;-48
2022/07/25 01:43:06;;;;;;;;;;;;;;;14.24;100.00;100390.69;3056797;19;1850;-48
2022/07/25 01:44:08;;;;;;;;;;;;;;;14.25;100.00;100395.06;3057179;19;939;-49
2022/07/25 01:45:14;;;;;;;;;;;;;;;14.23;100.00;100394.34;3057195;19;976;-48
2022/07/25 01:46:15;;;;;;;;;;;;;;;14.22;100.00;100398.00;3056315;19;873;-48
2022/07/25 01:47:20;;;;;;;;;;;;;;;14.20;100.00;100395.41;3056431;19;960;-49
2022/07/25 01:48:24;;;;;;;;;;;;;;;14.21;100.00;100396.28;3057177;19;912;-48
2022/07/25 01:49:26;;;;;;;;;;;;;;;14.21;100.00;100390.91;3057288;19;1002;-49
2022/07/25 01:50:32;;;;;;;;;;;;;;;14.20;100.00;100391.88;3056867;19;1143;-49
2022/07/25 01:51:34;;;;;;;;;;;;;;;14.19;100.00;100387.47;3057196;19;943;-48
2022/07/25 01:52:39;;;;;;;;;;;;;;;14.18;100.00;100385.78;3056769;19;1088;-49
2022/07/25 01:53:41;;;;;;;;;;;;;;;14.17;100.00;100389.44;3057301;19;951;-50
2022/07/25 01:54:48;;;;;;;;;;;;;;;14.18;100.00;100385.78;3057183;19;865;-49
2022/07/25 01:55:50;;;;;;;;;;;;;;;14.16;100.00;100379.66;3057218;19;1331;-49
2022/07/25 01:56:55;;;;;;;;;;;;;;;14.17;100.00;100378.69;3056244;19;1062;-49
2022/07/25 01:57:57;;;;;;;;;;;;;;;14.17;100.00;100386.75;3057120;19;990;-49
2022/07/25 01:59:02;;;;;;;;;;;;;;;14.17;100.00;100386.75;3056860;19;984;-48
2022/07/25 02:00:05;;;;;;;;;;;;;;;14.17;100.00;100378.69;3056913;19;1829;-49
2022/07/25 02:01:15;;;;;;;;;;;;;;;14.17;100.00;100384.06;3056998;19;1002;-48
2022/07/25 02:02:16;;;;;;;;;;;;;;;14.16;100.00;100382.34;3056998;19;902;-49
2022/07/25 02:03:33;;;;;;;;;;;;;;;14.16;100.00;100383.19;3056342;19;1842;-49
2022/07/25 02:04:35;;;;;;;;;;;;;;;14.15;100.00;100380.63;3057101;19;948;-48
2022/07/25 02:05:39;;;;;;;;;;;;;;;14.14;100.00;100378.94;3057330;19;793;-48
2022/07/25 02:06:41;;;;;;;;;;;;;;;14.14;100.00;100370.88;3057012;19;877;-48
2022/07/25 02:07:46;;;;;;;;;;;;;;;14.12;100.00;100370.16;3057027;19;876;-49
2022/07/25 02:08:48;;;;;;;;;;;;;;;14.12;100.00;100372.84;3056951;19;852;-48
2022/07/25 02:09:53;;;;;;;;;;;;;;;14.10;100.00;100370.28;3057136;19;884;-48
2022/07/25 02:10:57;;;;;;;;;;;;;;;14.09;100.00;100367.72;3056916;19;817;-49
2022/07/25 02:12:02;;;;;;;;;;;;;;;14.09;100.00;100373.06;3056994;19;1023;-49
2022/07/25 02:13:04;;;;;;;;;;;;;;;14.07;100.00;100374.06;3056582;19;987;-48
2022/07/25 02:14:08;;;;;;;;;;;;;;;14.08;100.00;100374.91;3057090;19;877;-48
2022/07/25 02:15:10;;;;;;;;;;;;;;;14.06;100.00;100372.34;3056148;19;803;-49
2022/07/25 02:16:15;;;;;;;;;;;;;;;14.07;100.00;100367.81;3056744;19;1039;-48
2022/07/25 02:17:17;;;;;;;;;;;;;;;14.06;100.00;100372.34;3056516;19;897;-49
2022/07/25 02:18:21;;;;;;;;;;;;;;;14.04;100.00;100363.56;3056858;19;916;-49
2022/07/25 02:19:23;;;;;;;;;;;;;;;14.02;100.00;100361.94;3056346;19;1046;-48
2022/07/25 02:20:27;;;;;;;;;;;;;;;14.02;100.00;100362.81;3056817;19;1547;-48
2022/07/25 02:21:29;;;;;;;;;;;;;;;14.02;100.00;100359.28;3056279;19;873;-50
2022/07/25 02:22:34;;;;;;;;;;;;;;;14.01;100.00;100357.56;3056697;19;900;-49
2022/07/25 02:23:36;;;;;;;;;;;;;;;14.00;100.00;100356.72;3055801;19;1850;-50
2022/07/25 02:24:40;;;;;;;;;;;;;;;13.97;100.00;100351.59;3056546;19;1621;-49
2022/07/25 02:25:42;;;;;;;;;;;;;;;13.98;100.00;100353.31;3056289;19;940;-49
2022/07/25 02:26:46;;;;;;;;;;;;;;;13.98;100.00;100353.31;3056662;19;996;-49
2022/07/25 02:27:48;;;;;;;;;;;;;;;13.97;100.00;100362.31;3056362;19;1035;-48
2022/07/25 02:28:53;;;;;;;;;;;;;;;13.96;100.00;100355.25;3056831;19;880;-49
2022/07/25 02:29:54;;;;;;;;;;;;;;;13.96;100.00;100365.13;3056301;19;1081;-49
2022/07/25 02:30:59;;;;;;;;;;;;;;;13.95;100.00;100358.91;3056801;19;897;-49
2022/07/25 02:32:01;;;;;;;;;;;;;;;13.96;100.00;100365.97;3056591;19;960;-49
2022/07/25 02:33:06;;;;;;;;;;;;;;;13.95;100.00;100353.53;3056448;19;1129;-50
2022/07/25 02:34:08;;;;;;;;;;;;;;;13.95;100.00;100358.91;3056286;19;936;-49
2022/07/25 02:35:13;;;;;;;;;;;;;;;13.95;100.00;100358.91;3057004;19;849;-49
2022/07/25 02:36:17;;;;;;;;;;;;;;;13.91;100.00;100362.78;3056017;19;1635;-49
2022/07/25 02:37:19;;;;;;;;;;;;;;;13.92;100.00;100367.19;3058141;19;1212;-50
2022/07/25 02:38:24;;;;;;;;;;;;;;;13.90;100.00;100360.22;3057928;19;1745;-50
2022/07/25 02:39:25;;;;;;;;;;;;;;;13.91;100.00;100362.78;3058353;19;1729;-48
2022/07/25 02:40:30;;;;;;;;;;;;;;;13.90;100.00;100355.72;3057090;19;1875;-50
2022/07/25 02:41:32;;;;;;;;;;;;;;;13.91;100.00;100367.28;3056748;19;1192;-49
2022/07/25 02:42:36;;;;;;;;;;;;;;;13.91;100.00;100365.47;3057340;19;1678;-49
2022/07/25 02:43:41;;;;;;;;;;;;;;;13.92;100.00;100361.81;3057258;19;1858;-49
2022/07/25 02:44:42;;;;;;;;;;;;;;;13.93;100.00;100363.53;3056793;19;1405;-49
2022/07/25 02:45:47;;;;;;;;;;;;;;;13.93;100.00;100376.94;3057614;19;1442;-49
2022/07/25 02:46:49;;;;;;;;;;;;;;;13.92;100.00;100369.88;3056634;19;1804;-49
2022/07/25 02:47:54;;;;;;;;;;;;;;;13.93;100.00;100376.94;3056297;19;1542;-49
2022/07/25 02:48:57;;;;;;;;;;;;;;;13.94;100.00;100362.56;3057118;19;1290;-49
2022/07/25 02:50:02;;;;;;;;;;;;;;;13.93;100.00;100368.03;3057439;19;1258;-49
2022/07/25 02:51:07;;;;;;;;;;;;;;;13.95;100.00;100366.09;3056997;19;1265;-49
2022/07/25 02:52:08;;;;;;;;;;;;;;;13.96;100.00;100365.13;3058042;19;1823;-49
2022/07/25 02:53:13;;;;;;;;;;;;;;;13.98;100.00;100373.91;3057432;19;1415;-48
2022/07/25 02:54:18;;;;;;;;;;;;;;;13.99;100.00;100376.47;3056677;19;1511;-48
2022/07/25 02:55:20;;;;;;;;;;;;;;;14.02;100.00;100370.00;3057347;19;1422;-49
2022/07/25 02:56:25;;;;;;;;;;;;;;;14.04;100.00;100368.91;3057417;19;1350;-49
2022/07/25 02:57:32;;;;;;;;;;;;;;;14.07;100.00;100367.81;3056517;19;1317;-49
2022/07/25 02:58:37;;;;;;;;;;;;;;;14.12;100.00;100367.47;3056566;19;1524;-50
2022/07/25 02:59:40;;;;;;;;;;;;;;;14.18;100.00;100369.66;3057218;19;1454;-49
2022/07/25 03:00:44;;;;;;;;;;;;;;;14.28;100.00;100365.28;3057731;19;1278;-49
2022/07/25 03:01:46;;;;;;;;;;;;;;;14.41;100.00;100366.06;3057458;19;1341;-48
2022/07/25 03:02:51;;;;;;;;;;;;;;;14.57;100.00;100366.56;3056473;19;1511;-49
2022/07/25 03:03:53;;;;;;;;;;;;;;;14.76;100.00;100366.75;3056848;19;1835;-49
2022/07/25 03:04:57;;;;;;;;;;;;;;;14.99;100.00;100361.34;3057012;19;1791;-50
2022/07/25 03:05:59;;;;;;;;;;;;;;;15.23;100.00;100366.53;3057714;19;1514;-49
2022/07/25 03:07:04;;;;;;;;;;;;;;;15.45;100.00;100359.28;3057267;19;1391;-49
2022/07/25 03:08:05;;;;;;;;;;;;;;;15.71;100.00;100353.53;3056980;19;1371;-49
2022/07/25 03:09:10;;;;;;;;;;;;;;;15.97;100.00;100360.22;3057057;19;1286;-49
2022/07/25 03:10:12;;;;;;;;;;;;;;;16.26;100.00;100359.56;3057102;19;1476;-49
2022/07/25 03:11:17;;;;;;;;;;;;;;;16.53;100.00;100349.06;3056799;19;1293;-49
2022/07/25 03:12:19;;;;;;;;;;;;;;;16.85;100.00;100359.69;3055870;19;1500;-49
2022/07/25 03:13:23;;;;;;;;;;;;;;;17.11;100.00;100354.63;3055360;19;1482;-50
2022/07/25 03:14:25;;;;;;;;;;;;;;;17.40;100.00;100363.59;3056454;19;1548;-49
2022/07/25 03:15:30;;;;;;;;;;;;;;;17.68;100.00;100366.47;3057172;19;1219;-48
2022/07/25 03:16:32;;;;;;;;;;;;;;;17.97;100.00;100378.13;3056919;19;1543;-48
2022/07/25 03:17:36;;;;;;;;;;;;;;;18.25;100.00;100371.78;3056944;19;1257;-49
2022/07/25 03:18:38;;;;;;;;;;;;;;;18.58;100.00;100383.09;3058520;19;1928;-49
2022/07/25 03:19:43;;;;;;;;;;;;;;;18.86;100.00;100398.31;3059654;19;1437;-49
2022/07/25 03:20:44;;;;;;;;;;;;;;;19.19;100.00;100407.69;3059641;19;1383;-47
2022/07/25 03:21:49;;;;;;;;;;;;;;;19.51;100.00;100415.34;3060450;19;1356;-50
2022/07/25 03:22:51;;;;;;;;;;;;;;;19.87;100.00;100437.00;3060087;19;1543;-50
2022/07/25 03:23:55;;;;;;;;;;;;;;;20.19;100.00;100441.84;3059177;19;1853;-50
2022/07/25 03:24:58;;;;;;;;;;;;;;;20.52;100.00;100453.81;3059930;19;1405;-49
2022/07/25 03:26:02;;;;;;;;;;;;;;;20.79;100.00;100483.47;3060150;19;1810;-50
2022/07/25 03:27:06;;;;;;;;;;;;;;;21.03;100.00;100508.03;3060528;19;1399;-49
2022/07/25 03:28:08;;;;;;;;;;;;;;;21.30;100.00;100514.31;3059289;19;1414;-49
2022/07/25 03:29:13;;;;;;;;;;;;;;;21.61;100.00;100533.63;3059414;19;1346;-48
2022/07/25 03:30:15;;;;;;;;;;;;;;;21.92;100.00;100554.59;3059943;19;1532;-48
2022/07/25 03:31:19;;;;;;;;;;;;;;;22.20;100.00;100585.13;3060099;19;1823;-49
2022/07/25 03:32:22;;;;;;;;;;;;;;;22.54;100.00;100595.00;3059964;19;1827;-47
2022/07/25 03:33:27;;;;;;;;;;;;;;;22.85;100.00;100612.38;3059119;19;1556;-49
2022/07/25 03:34:28;;;;;;;;;;;;;;;23.16;100.00;100636.19;3059592;19;1312;-51
2022/07/25 03:35:33;;;;;;;;;;;;;;;23.45;100.00;100641.91;3060007;19;1440;-49
2022/07/25 03:36:38;;;;;;;;;;;;;;;23.75;100.00;100653.94;3059785;19;1935;-49
2022/07/25 03:37:40;;;;;;;;;;;;;;;24.08;100.00;100662.84;3059913;19;1630;-49
2022/07/25 03:38:44;;;;;;;;;;;;;;;24.36;100.00;100674.16;3058468;19;2301;-48
2022/07/25 03:39:46;;;;;;;;;;;;;;;24.65;100.00;100685.22;3059179;19;1540;-49
2022/07/25 03:40:51;;;;;;;;;;;;;;;24.93;100.00;100692.91;3059561;19;1654;-49
2022/07/25 03:41:53;;;;;;;;;;;;;;;25.22;100.00;100701.22;3059446;19;1919;-48
2022/07/25 03:42:57;;;;;;;;;;;;;;;25.52;100.00;100714.91;3059643;19;1623;-48
2022/07/25 03:43:59;;;;;;;;;;;;;;;25.83;100.00;100712.94;3060103;19;1281;-49
2022/07/25 03:45:04;;;;;;;;;;;;;;;26.14;100.00;100715.47;3059853;19;1741;-50
2022/07/25 03:46:05;;;;;;;;;;;;;;;26.41;100.00;100723.00;3059680;19;1355;-49
2022/07/25 03:47:10;;;;;;;;;;;;;;;26.67;100.00;100733.44;3059703;19;1653;-49
2022/07/25 03:48:21;;;;;;;;;;;;;;;26.94;100.00;100733.72;3059184;19;1528;-48
2022/07/25 03:49:25;;;;;;;;;;;;;;;27.16;100.00;100733.56;3059658;19;1344;-49
2022/07/25 03:50:27;;;;;;;;;;;;;;;27.43;100.00;100751.06;3059708;19;1468;-49
2022/07/25 03:51:31;;;;;;;;;;;;;;;27.69;100.00;100749.63;3058226;19;1336;-48
2022/07/25 03:52:33;;;;;;;;;;;;;;;27.96;100.00;100746.88;3059076;19;1237;-49
2022/07/25 03:54:00;;;;;;;;;;;;;;;28.19;100.00;100749.38;3058907;19;1263;-49
2022/07/25 03:55:00;;;;;;;;;;;;;;;28.52;100.00;100744.00;3059344;19;2367;-49
2022/07/25 03:56:04;;;;;;;;;;;;;;;28.80;100.00;100754.94;3058509;19;1471;-49
2022/07/25 03:57:06;;;;;;;;;;;;;;;29.08;100.00;100753.94;3058519;19;1551;-49
2022/07/25 03:58:10;;;;;;;;;;;;;;;29.32;100.00;100753.34;3059247;19;1389;-49
2022/07/25 03:59:14;;;;;;;;;;;;;;;29.57;100.00;100756.34;3059284;19;1404;-47
2022/07/25 04:00:19;;;;;;;;;;;;;;;29.83;100.00;100766.50;3058850;19;1280;-49
2022/07/25 04:01:21;;;;;;;;;;;;;;;30.09;100.00;100760.94;3056115;19;1927;-50
2022/07/25 04:02:26;;;;;;;;;;;;;;;30.33;100.00;100768.50;3056775;19;1263;-49
2022/07/25 04:03:28;;;;;;;;;;;;;;;30.60;100.00;100769.28;3057393;19;1416;-49
2022/07/25 04:04:33;;;;;;;;;;;;;;;30.90;100.00;100763.22;3057586;19;1861;-48
2022/07/25 04:05:34;;;;;;;;;;;;;;;31.18;100.00;100771.13;3057927;19;1663;-48
2022/07/25 04:06:39;;;;;;;;;;;;;;;31.42;100.00;100770.31;3058843;19;1711;-48
2022/07/25 04:07:41;;;;;;;;;;;;;;;31.65;98.85;100778.00;3059282;19;1647;-50
2022/07/25 04:08:45;;;;;;;;;;;;;;;31.87;97.86;100776.56;3058505;19;960;-48
2022/07/25 04:09:47;;;;;;;;;;;;;;;32.11;97.15;100777.59;3058451;19;1141;-48
2022/07/25 04:10:52;;;;;;;;;;;;;;;32.31;96.00;100775.47;3059636;19;1448;-50
2022/07/25 04:11:53;;;;;;;;;;;;;;;32.54;93.98;100778.38;3059294;19;1332;-48
2022/07/25 04:12:58;;;;;;;;;;;;;;;32.73;91.43;100775.59;3059694;19;1442;-49
2022/07/25 04:14:01;;;;;;;;;;;;;;;32.94;90.36;100777.88;3059419;19;1383;-49
2022/07/25 04:15:06;;;;;;;;;;;;;;;33.17;88.08;100771.59;3059994;19;1794;-49
2022/07/25 04:16:08;;;;;;;;;;;;;;;33.35;86.31;100779.00;3059098;19;1341;-49
2022/07/25 04:17:25;;;;;;;;;;;;;;;33.61;83.46;100786.88;3059312;19;1677;-49
2022/07/25 04:18:27;;;;;;;;;;;;;;;33.79;83.24;100786.81;3059207;19;1299;-49
2022/07/25 04:19:32;;;;;;;;;;;;;;;33.94;82.69;100784.41;3059187;19;1386;-50
2022/07/25 04:20:36;;;;;;;;;;;;;;;34.15;81.20;100793.19;3059241;19;1182;-49
2022/07/25 04:21:40;;;;;;;;;;;;;;;34.40;79.83;100793.81;3059875;19;1398;-49
2022/07/25 04:22:42;;;;;;;;;;;;;;;34.64;78.91;100787.13;3059406;19;1878;-49
2022/07/25 04:23:50;;;;;;;;;;;;;;;34.90;77.56;100787.66;3059061;19;1801;-49
2022/07/25 04:24:52;;;;;;;;;;;;;;;35.07;76.74;100793.25;3058578;19;1850;-48
2022/07/25 04:25:57;;;;;;;;;;;;;;;35.20;76.09;100793.78;3059226;19;1815;-48
2022/07/25 04:27:02;;;;;;;;;;;;;;;35.33;75.18;100793.50;3058175;19;1031;-49
2022/07/25 04:28:03;;;;;;;;;;;;;;;35.43;74.61;100801.16;3058529;19;1040;-49
2022/07/25 04:29:08;;;;;;;;;;;;;;;35.54;73.91;100799.41;3057124;19;950;-48
2022/07/25 04:30:10;;;;;;;;;;;;;;;35.64;72.06;100802.34;3057636;19;1279;-48
2022/07/25 04:31:14;;;;;;;;;;;;;;;35.73;71.88;100792.53;3058332;19;1731;-49
2022/07/25 04:32:18;;;;;;;;;;;;;;;35.76;71.74;100783.69;3059006;19;1858;-49
2022/07/25 04:33:26;;;;;;;;;;;;;;;35.97;70.35;100799.63;3058460;19;1381;-50
2022/07/25 04:34:28;;;;;;;;;;;;;;;36.14;69.29;100798.72;3057607;19;1300;-49
2022/07/25 04:35:33;;;;;;;;;;;;;;;36.26;68.63;100802.28;3058571;19;1740;-50
2022/07/25 04:36:34;;;;;;;;;;;;;;;36.38;67.73;100797.44;3059465;19;1632;-49
2022/07/25 04:37:39;;;;;;;;;;;;;;;36.50;67.87;100795.38;3059221;19;1367;-49
2022/07/25 04:38:41;;;;;;;;;;;;;;;36.61;66.54;100799.97;3058823;19;1428;-49
2022/07/25 04:39:45;;;;;;;;;;;;;;;36.72;66.37;100796.25;3059121;19;1647;-48
2022/07/25 04:40:47;;;;;;;;;;;;;;;36.84;66.36;100792.47;3058947;19;1825;-49
2022/07/25 04:41:51;;;;;;;;;;;;;;;36.95;65.81;100792.34;3059504;19;1759;-49
2022/07/25 04:42:53;;;;;;;;;;;;;;;37.03;64.95;100793.81;3059223;19;1756;-49
2022/07/25 04:43:58;;;;;;;;;;;;;;;37.12;64.21;100795.03;3059102;19;1457;-49
2022/07/25 04:44:59;;;;;;;;;;;;;;;37.20;63.95;100797.34;3058413;19;1849;-48
2022/07/25 04:46:04;;;;;;;;;;;;;;;37.23;63.32;100796.84;3058672;19;1358;-49
2022/07/25 04:47:06;;;;;;;;;;;;;;;37.29;63.08;100801.38;3059028;19;1716;-49
2022/07/25 04:48:10;;;;;;;;;;;;;;;37.36;62.87;100796.41;3059143;19;1862;-49
2022/07/25 04:49:12;;;;;;;;;;;;;;;37.33;61.98;100790.53;3059110;19;1735;-49
2022/07/25 04:50:17;;;;;;;;;;;;;;;37.25;62.01;100797.44;3059417;19;1759;-49
2022/07/25 04:51:25;;;;;;;;;;;;;;;37.19;62.19;100792.94;3058729;19;1466;-49
2022/07/25 04:52:29;;;;;;;;;;;;;;;37.18;62.68;100791.25;3059418;19;1413;-49
2022/07/25 04:53:31;;;;;;;;;;;;;;;37.15;62.93;100795.34;3058896;19;1841;-49
2022/07/25 04:54:36;;;;;;;;;;;;;;;37.13;61.81;100796.72;3058521;19;1645;-49
2022/07/25 04:55:37;;;;;;;;;;;;;;;37.12;60.94;100789.47;3058354;19;1750;-48
2022/07/25 04:56:42;;;;;;;;;;;;;;;37.12;60.64;100792.25;3057810;19;1724;-49
2022/07/25 04:57:45;;;;;;;;;;;;;;;37.15;60.91;100783.38;3057881;19;1961;-49
2022/07/25 04:58:50;;;;;;;;;;;;;;;37.17;60.50;100780.38;3058808;19;1354;-49
2022/07/25 04:59:52;;;;;;;;;;;;;;;37.21;61.38;100787.91;3059408;19;1289;-49
2022/07/25 05:00:57;;;;;;;;;;;;;;;37.24;60.67;100784.59;3056780;19;1318;-49
2022/07/25 05:01:59;;;;;;;;;;;;;;;37.30;60.86;100791.91;3056142;19;964;-49
2022/07/25 05:03:03;;;;;;;;;;;;;;;37.30;60.94;100779.94;3055200;19;1660;-48
2022/07/25 05:04:06;;;;;;;;;;;;;;;37.19;61.52;100779.00;3055071;19;948;-49
2022/07/25 05:05:11;;;;;;;;;;;;;;;37.03;60.53;100777.13;3056644;19;892;-49
2022/07/25 05:06:22;;;;;;;;;;;;;;;36.79;61.86;100773.81;3056291;19;957;-50
2022/07/25 05:07:27;;;;;;;;;;;;;;;36.45;62.06;100773.09;3055782;19;1371;-49
2022/07/25 05:08:29;;;;;;;;;;;;;;;36.22;63.59;100776.09;3050095;19;1626;-50
2022/07/25 05:09:33;;;;;;;;;;;;;;;35.93;64.61;100770.66;3058305;19;1730;-49
2022/07/25 05:10:35;;;;;;;;;;;;;;;35.15;66.50;100765.94;3050804;19;1526;-49
2022/07/25 05:11:39;;;;;;;;;;;;;;;33.63;71.45;100757.03;3052600;19;1205;-49
2022/07/25 05:12:48;;;;;;;;;;;;;;;32.03;78.50;100753.84;3052851;19;1489;-47
2022/07/25 05:13:53;;;;;;;;;;;;;;;31.08;84.39;100750.38;3052956;19;1761;-49
2022/07/25 05:14:54;;;;;;;;;;;;;;;30.25;89.23;100749.47;3051155;19;1612;-49
2022/07/25 05:15:59;;;;;;;;;;;;;;;29.52;94.66;100748.72;3050512;19;1655;-49
2022/07/25 05:17:01;;;;;;;;;;;;;;;28.85;100.00;100741.44;3050061;19;1355;-49
2022/07/25 05:18:06;;;;;;;;;;;;;;;28.28;100.00;100745.38;3049845;19;1558;-50
2022/07/25 05:19:08;;;;;;;;;;;;;;;27.79;100.00;100744.63;3051008;19;1566;-49
2022/07/25 05:20:13;;;;;;;;;;;;;;;27.35;100.00;100731.19;3051725;19;1534;-48
2022/07/25 05:21:18;;;;;;;;;;;;;;;26.93;100.00;100732.06;3051178;19;1296;-49
2022/07/25 05:22:19;;;;;;;;;;;;;;;26.54;100.00;100727.81;3050865;19;1664;-49
2022/07/25 05:23:31;;;;;;;;;;;;;;;26.17;100.00;100718.66;3050891;19;1518;-48
2022/07/25 05:24:33;;;;;;;;;;;;;;;25.86;100.00;100714.41;3050601;19;1428;-48
2022/07/25 05:25:38;;;;;;;;;;;;;;;25.55;100.00;100712.66;3046896;19;2209;-49
2022/07/25 05:26:40;;;;;;;;;;;;;;;25.26;100.00;100710.72;3050379;19;1329;-49
2022/07/25 05:27:44;;;;;;;;;;;;;;;25.00;100.00;100702.06;3050446;19;1684;-49
2022/07/25 05:28:46;;;;;;;;;;;;;;;24.76;100.00;100708.50;3050238;19;1476;-50
2022/07/25 05:29:51;;;;;;;;;;;;;;;24.53;100.00;100696.72;3050475;19;1621;-50